River Hills, Wisconsin
Current Conditions -  °F | °C
As of 7:45 AM on Thursday 27 Nov 2014 (Local Time) from KMWC Reporting Station
Broken Clouds Broken Clouds  
Wind Chill:   Ceiling: 7000
Heat Index: 21°   Visibility: 10mi
Dew Point: 16°   Wind: 14mph
Humidity: 80%   Direction: 310°NW
Pressure: 30.28"   Gusts: 21mph
Location:  43.1576°N, 87.9144°W
Report Text: KMWC 271345Z AUTO 31012G18KT 10SM BKN070 M06/M09 A3028
Loading
Personal Weather Stations






























Interactive Weather Map New forecast layout! Learn more

10-Day Weather Forecast

Advertisements
Track Severe Weather on mobile